sensor_id;sensor_type;location;lat;lon;timestamp;P1;durP1;ratioP1;P2;durP2;ratioP2
4325;SDS011;58429;49.826;10.880;2023-03-23T00:00:50;8.2;;;2.4;;
4325;SDS011;58429;49.826;10.880;2023-03-23T00:01:50;8.2;;;2.4;;
4325;SDS011;58429;49.826;10.880;2023-03-23T00:02:50;8.2;;;2.4;;
4325;SDS011;58429;49.826;10.880;2023-03-23T00:03:50;7.8;;;2.6;;
4325;SDS011;58429;49.826;10.880;2023-03-23T00:04:50;7.8;;;2.6;;
4325;SDS011;58429;49.826;10.880;2023-03-23T00:05:50;7.8;;;2.6;;
4325;SDS011;58429;49.826;10.880;2023-03-23T00:06:50;7;;;2.5;;
4325;SDS011;58429;49.826;10.880;2023-03-23T00:07:50;7;;;2.5;;
4325;SDS011;58429;49.826;10.880;2023-03-23T00:08:51;7;;;2.5;;
4325;SDS011;58429;49.826;10.880;2023-03-23T00:09:50;6.9;;;2.5;;
4325;SDS011;58429;49.826;10.880;2023-03-23T00:10:50;6.9;;;2.5;;
4325;SDS011;58429;49.826;10.880;2023-03-23T00:11:50;6.9;;;2.5;;
4325;SDS011;58429;49.826;10.880;2023-03-23T00:12:50;6.9;;;2.5;;
4325;SDS011;58429;49.826;10.880;2023-03-23T00:13:50;7.4;;;2.5;;
4325;SDS011;58429;49.826;10.880;2023-03-23T00:14:50;7.4;;;2.5;;
4325;SDS011;58429;49.826;10.880;2023-03-23T00:15:50;7.4;;;2.5;;
4325;SDS011;58429;49.826;10.880;2023-03-23T00:16:50;11.1;;;2.8;;
4325;SDS011;58429;49.826;10.880;2023-03-23T00:17:50;11.1;;;2.8;;
4325;SDS011;58429;49.826;10.880;2023-03-23T00:18:50;11.1;;;2.8;;
4325;SDS011;58429;49.826;10.880;2023-03-23T00:19:50;7.7;;;2.6;;
4325;SDS011;58429;49.826;10.880;2023-03-23T00:20:51;7.7;;;2.6;;
4325;SDS011;58429;49.826;10.880;2023-03-23T00:21:50;7.7;;;2.6;;
4325;SDS011;58429;49.826;10.880;2023-03-23T00:22:50;7.5;;;2.5;;
4325;SDS011;58429;49.826;10.880;2023-03-23T00:23:50;7.5;;;2.5;;
4325;SDS011;58429;49.826;10.880;2023-03-23T00:24:50;7.5;;;2.5;;
4325;SDS011;58429;49.826;10.880;2023-03-23T00:25:51;7.7;;;2.7;;
4325;SDS011;58429;49.826;10.880;2023-03-23T00:26:50;7.7;;;2.7;;
4325;SDS011;58429;49.826;10.880;2023-03-23T00:27:50;7.7;;;2.7;;
4325;SDS011;58429;49.826;10.880;2023-03-23T00:28:50;7;;;2.8;;
4325;SDS011;58429;49.826;10.880;2023-03-23T00:29:50;7;;;2.8;;
4325;SDS011;58429;49.826;10.880;2023-03-23T00:30:54;7;;;2.8;;
4325;SDS011;58429;49.826;10.880;2023-03-23T00:31:50;7;;;2.5;;
4325;SDS011;58429;49.826;10.880;2023-03-23T00:32:50;7;;;2.5;;
4325;SDS011;58429;49.826;10.880;2023-03-23T00:33:50;7;;;2.5;;
4325;SDS011;58429;49.826;10.880;2023-03-23T00:34:50;7.1;;;2.6;;
4325;SDS011;58429;49.826;10.880;2023-03-23T00:35:50;7.1;;;2.6;;
4325;SDS011;58429;49.826;10.880;2023-03-23T00:36:50;7.1;;;2.6;;
4325;SDS011;58429;49.826;10.880;2023-03-23T00:37:50;6.9;;;2.4;;
4325;SDS011;58429;49.826;10.880;2023-03-23T00:38:50;6.9;;;2.4;;
4325;SDS011;58429;49.826;10.880;2023-03-23T00:39:50;6.9;;;2.4;;
4325;SDS011;58429;49.826;10.880;2023-03-23T00:40:50;6.9;;;2.5;;
4325;SDS011;58429;49.826;10.880;2023-03-23T00:41:50;6.9;;;2.5;;
4325;SDS011;58429;49.826;10.880;2023-03-23T00:42:50;6.9;;;2.5;;
4325;SDS011;58429;49.826;10.880;2023-03-23T00:43:50;7.8;;;3;;
4325;SDS011;58429;49.826;10.880;2023-03-23T00:44:50;7.8;;;3;;
4325;SDS011;58429;49.826;10.880;2023-03-23T00:45:50;7.8;;;3;;
4325;SDS011;58429;49.826;10.880;2023-03-23T00:46:50;8.3;;;3.3;;
4325;SDS011;58429;49.826;10.880;2023-03-23T00:47:50;8.3;;;3.3;;
4325;SDS011;58429;49.826;10.880;2023-03-23T00:48:50;8.3;;;3.3;;
4325;SDS011;58429;49.826;10.880;2023-03-23T00:49:50;8.8;;;3.3;;
4325;SDS011;58429;49.826;10.880;2023-03-23T00:50:50;8.8;;;3.3;;
4325;SDS011;58429;49.826;10.880;2023-03-23T00:51:50;8.8;;;3.3;;
4325;SDS011;58429;49.826;10.880;2023-03-23T00:52:50;8.4;;;3;;
4325;SDS011;58429;49.826;10.880;2023-03-23T00:53:50;8.4;;;3;;
4325;SDS011;58429;49.826;10.880;2023-03-23T00:54:50;8.4;;;3;;
4325;SDS011;58429;49.826;10.880;2023-03-23T00:55:50;9;;;3.2;;
4325;SDS011;58429;49.826;10.880;2023-03-23T00:56:50;9;;;3.2;;
4325;SDS011;58429;49.826;10.880;2023-03-23T00:57:50;9;;;3.2;;
4325;SDS011;58429;49.826;10.880;2023-03-23T00:58:50;9;;;3.4;;
4325;SDS011;58429;49.826;10.880;2023-03-23T00:59:50;9;;;3.4;;
4325;SDS011;58429;49.826;10.880;2023-03-23T01:00:50;9;;;3.4;;
4325;SDS011;58429;49.826;10.880;2023-03-23T01:01:50;11.7;;;3.8;;
4325;SDS011;58429;49.826;10.880;2023-03-23T01:02:50;11.7;;;3.8;;
4325;SDS011;58429;49.826;10.880;2023-03-23T01:03:50;11.7;;;3.8;;
4325;SDS011;58429;49.826;10.880;2023-03-23T01:04:50;9.6;;;3.4;;
4325;SDS011;58429;49.826;10.880;2023-03-23T01:05:50;9.6;;;3.4;;
4325;SDS011;58429;49.826;10.880;2023-03-23T01:06:50;9.6;;;3.4;;
4325;SDS011;58429;49.826;10.880;2023-03-23T01:07:50;8.8;;;3.5;;
4325;SDS011;58429;49.826;10.880;2023-03-23T01:08:50;8.8;;;3.5;;
4325;SDS011;58429;49.826;10.880;2023-03-23T01:09:50;8.8;;;3.5;;
4325;SDS011;58429;49.826;10.880;2023-03-23T01:10:50;7.7;;;2.9;;
4325;SDS011;58429;49.826;10.880;2023-03-23T01:11:50;7.7;;;2.9;;
4325;SDS011;58429;49.826;10.880;2023-03-23T01:12:50;7.7;;;2.9;;
4325;SDS011;58429;49.826;10.880;2023-03-23T01:13:50;7.7;;;2.7;;
4325;SDS011;58429;49.826;10.880;2023-03-23T01:14:50;7.7;;;2.7;;
4325;SDS011;58429;49.826;10.880;2023-03-23T01:15:50;7.7;;;2.7;;
4325;SDS011;58429;49.826;10.880;2023-03-23T01:16:50;6.9;;;2.6;;
4325;SDS011;58429;49.826;10.880;2023-03-23T01:17:50;6.9;;;2.6;;
4325;SDS011;58429;49.826;10.880;2023-03-23T01:18:50;6.9;;;2.6;;
4325;SDS011;58429;49.826;10.880;2023-03-23T01:19:50;8.8;;;2.7;;
4325;SDS011;58429;49.826;10.880;2023-03-23T01:20:50;8.8;;;2.7;;
4325;SDS011;58429;49.826;10.880;2023-03-23T01:21:50;8.8;;;2.7;;
4325;SDS011;58429;49.826;10.880;2023-03-23T01:22:50;7.8;;;2.7;;
4325;SDS011;58429;49.826;10.880;2023-03-23T01:23:50;7.8;;;2.7;;
4325;SDS011;58429;49.826;10.880;2023-03-23T01:24:50;7.8;;;2.7;;
4325;SDS011;58429;49.826;10.880;2023-03-23T01:25:50;7.6;;;3;;
4325;SDS011;58429;49.826;10.880;2023-03-23T01:26:50;7.6;;;3;;
4325;SDS011;58429;49.826;10.880;2023-03-23T01:27:50;7.6;;;3;;
4325;SDS011;58429;49.826;10.880;2023-03-23T01:28:50;9.1;;;3.4;;
4325;SDS011;58429;49.826;10.880;2023-03-23T01:29:50;9.1;;;3.4;;
4325;SDS011;58429;49.826;10.880;2023-03-23T01:30:50;9.1;;;3.4;;
4325;SDS011;58429;49.826;10.880;2023-03-23T01:31:50;8.8;;;3.3;;
4325;SDS011;58429;49.826;10.880;2023-03-23T01:32:50;8.8;;;3.3;;
4325;SDS011;58429;49.826;10.880;2023-03-23T01:33:50;8.8;;;3.3;;
4325;SDS011;58429;49.826;10.880;2023-03-23T01:34:50;9.7;;;2.7;;
4325;SDS011;58429;49.826;10.880;2023-03-23T01:35:50;9.7;;;2.7;;
4325;SDS011;58429;49.826;10.880;2023-03-23T01:36:50;9.7;;;2.7;;
4325;SDS011;58429;49.826;10.880;2023-03-23T01:37:50;8;;;2.4;;
4325;SDS011;58429;49.826;10.880;2023-03-23T01:38:50;8;;;2.4;;
4325;SDS011;58429;49.826;10.880;2023-03-23T01:39:50;8;;;2.4;;
4325;SDS011;58429;49.826;10.880;2023-03-23T01:40:50;9.9;;;2.9;;
4325;SDS011;58429;49.826;10.880;2023-03-23T01:41:50;9.9;;;2.9;;
4325;SDS011;58429;49.826;10.880;2023-03-23T01:42:50;9.9;;;2.9;;
4325;SDS011;58429;49.826;10.880;2023-03-23T01:43:54;6.8;;;2.3;;
4325;SDS011;58429;49.826;10.880;2023-03-23T01:45:24;6.8;;;2.3;;
4325;SDS011;58429;49.826;10.880;2023-03-23T01:45:50;6.8;;;2.3;;
4325;SDS011;58429;49.826;10.880;2023-03-23T01:46:50;8.2;;;3.5;;
4325;SDS011;58429;49.826;10.880;2023-03-23T01:47:51;8.2;;;3.5;;
4325;SDS011;58429;49.826;10.880;2023-03-23T01:48:50;8.2;;;3.5;;
4325;SDS011;58429;49.826;10.880;2023-03-23T01:49:50;7.4;;;2.4;;
4325;SDS011;58429;49.826;10.880;2023-03-23T01:50:51;7.4;;;2.4;;
4325;SDS011;58429;49.826;10.880;2023-03-23T01:51:51;7.4;;;2.4;;
4325;SDS011;58429;49.826;10.880;2023-03-23T01:52:50;7.6;;;2.6;;
4325;SDS011;58429;49.826;10.880;2023-03-23T01:53:50;7.6;;;2.6;;
4325;SDS011;58429;49.826;10.880;2023-03-23T01:54:50;7.6;;;2.6;;
4325;SDS011;58429;49.826;10.880;2023-03-23T01:55:50;7;;;2.3;;
4325;SDS011;58429;49.826;10.880;2023-03-23T01:56:50;7;;;2.3;;
4325;SDS011;58429;49.826;10.880;2023-03-23T01:57:50;7;;;2.3;;
4325;SDS011;58429;49.826;10.880;2023-03-23T01:58:50;6.9;;;2.4;;
4325;SDS011;58429;49.826;10.880;2023-03-23T01:59:51;6.9;;;2.4;;
4325;SDS011;58429;49.826;10.880;2023-03-23T02:00:50;6.9;;;2.4;;
4325;SDS011;58429;49.826;10.880;2023-03-23T02:01:50;7.5;;;2.8;;
4325;SDS011;58429;49.826;10.880;2023-03-23T02:02:50;7.5;;;2.8;;
4325;SDS011;58429;49.826;10.880;2023-03-23T02:03:51;7.5;;;2.8;;
4325;SDS011;58429;49.826;10.880;2023-03-23T02:04:50;7.5;;;2.8;;
4325;SDS011;58429;49.826;10.880;2023-03-23T02:05:50;6.5;;;2.6;;
4325;SDS011;58429;49.826;10.880;2023-03-23T02:06:50;6.5;;;2.6;;
4325;SDS011;58429;49.826;10.880;2023-03-23T02:07:50;6.5;;;2.6;;
4325;SDS011;58429;49.826;10.880;2023-03-23T02:08:50;7.2;;;2.6;;
4325;SDS011;58429;49.826;10.880;2023-03-23T02:09:50;7.2;;;2.6;;
4325;SDS011;58429;49.826;10.880;2023-03-23T02:10:50;7.2;;;2.6;;
4325;SDS011;58429;49.826;10.880;2023-03-23T02:11:50;7.6;;;2.8;;
4325;SDS011;58429;49.826;10.880;2023-03-23T02:12:50;7.6;;;2.8;;
4325;SDS011;58429;49.826;10.880;2023-03-23T02:13:50;7.6;;;2.8;;
4325;SDS011;58429;49.826;10.880;2023-03-23T02:14:50;9.2;;;3;;
4325;SDS011;58429;49.826;10.880;2023-03-23T02:15:54;9.2;;;3;;
4325;SDS011;58429;49.826;10.880;2023-03-23T02:16:51;9.2;;;3;;
4325;SDS011;58429;49.826;10.880;2023-03-23T02:17:51;8;;;2.9;;
4325;SDS011;58429;49.826;10.880;2023-03-23T02:18:53;8;;;2.9;;
4325;SDS011;58429;49.826;10.880;2023-03-23T02:19:55;8;;;2.9;;
4325;SDS011;58429;49.826;10.880;2023-03-23T02:20:57;6.6;;;2.3;;
4325;SDS011;58429;49.826;10.880;2023-03-23T02:22:10;6.6;;;2.3;;
4325;SDS011;58429;49.826;10.880;2023-03-23T02:23:02;6.6;;;2.3;;
4325;SDS011;58429;49.826;10.880;2023-03-23T02:23:53;6.3;;;2.1;;
4325;SDS011;58429;49.826;10.880;2023-03-23T02:24:59;6.3;;;2.1;;
4325;SDS011;58429;49.826;10.880;2023-03-23T02:25:53;6.3;;;2.1;;
4325;SDS011;58429;49.826;10.880;2023-03-23T02:26:51;7.2;;;2.5;;
4325;SDS011;58429;49.826;10.880;2023-03-23T02:27:58;7.2;;;2.5;;
4325;SDS011;58429;49.826;10.880;2023-03-23T02:28:56;7.2;;;2.5;;
4325;SDS011;58429;49.826;10.880;2023-03-23T02:29:54;7.6;;;2.2;;
4325;SDS011;58429;49.826;10.880;2023-03-23T02:30:53;7.6;;;2.2;;
4325;SDS011;58429;49.826;10.880;2023-03-23T02:31:56;7.6;;;2.2;;
4325;SDS011;58429;49.826;10.880;2023-03-23T02:32:55;6.4;;;1.9;;
4325;SDS011;58429;49.826;10.880;2023-03-23T02:33:52;6.4;;;1.9;;
4325;SDS011;58429;49.826;10.880;2023-03-23T02:34:50;6.4;;;1.9;;
4325;SDS011;58429;49.826;10.880;2023-03-23T02:35:51;6.4;;;2.1;;
4325;SDS011;58429;49.826;10.880;2023-03-23T02:36:52;6.4;;;2.1;;
4325;SDS011;58429;49.826;10.880;2023-03-23T02:37:51;6.4;;;2.1;;
4325;SDS011;58429;49.826;10.880;2023-03-23T02:38:55;6.4;;;2;;
4325;SDS011;58429;49.826;10.880;2023-03-23T02:39:51;6.4;;;2;;
4325;SDS011;58429;49.826;10.880;2023-03-23T02:40:50;6.4;;;2;;
4325;SDS011;58429;49.826;10.880;2023-03-23T02:41:50;6.6;;;2.1;;
4325;SDS011;58429;49.826;10.880;2023-03-23T02:42:51;6.6;;;2.1;;
4325;SDS011;58429;49.826;10.880;2023-03-23T02:43:50;6.6;;;2.1;;
4325;SDS011;58429;49.826;10.880;2023-03-23T02:44:50;6.6;;;2.1;;
4325;SDS011;58429;49.826;10.880;2023-03-23T02:45:50;6.6;;;2.1;;
4325;SDS011;58429;49.826;10.880;2023-03-23T02:46:50;6.6;;;2.1;;
4325;SDS011;58429;49.826;10.880;2023-03-23T02:47:51;6.3;;;1.9;;
4325;SDS011;58429;49.826;10.880;2023-03-23T02:48:50;6.3;;;1.9;;
4325;SDS011;58429;49.826;10.880;2023-03-23T02:49:51;6.3;;;1.9;;
4325;SDS011;58429;49.826;10.880;2023-03-23T02:50:51;5.9;;;1.9;;
4325;SDS011;58429;49.826;10.880;2023-03-23T02:51:50;5.9;;;1.9;;
4325;SDS011;58429;49.826;10.880;2023-03-23T02:52:50;5.9;;;1.9;;
4325;SDS011;58429;49.826;10.880;2023-03-23T02:53:50;7;;;2;;
4325;SDS011;58429;49.826;10.880;2023-03-23T02:54:50;7;;;2;;
4325;SDS011;58429;49.826;10.880;2023-03-23T02:55:50;7;;;2;;
4325;SDS011;58429;49.826;10.880;2023-03-23T02:56:50;6.1;;;2.1;;
4325;SDS011;58429;49.826;10.880;2023-03-23T02:57:51;6.1;;;2.1;;
4325;SDS011;58429;49.826;10.880;2023-03-23T02:58:50;6.1;;;2.1;;
4325;SDS011;58429;49.826;10.880;2023-03-23T02:59:50;6.7;;;2.1;;
4325;SDS011;58429;49.826;10.880;2023-03-23T03:00:50;6.7;;;2.1;;
4325;SDS011;58429;49.826;10.880;2023-03-23T03:01:51;6.7;;;2.1;;
4325;SDS011;58429;49.826;10.880;2023-03-23T03:02:51;7.9;;;1.9;;
4325;SDS011;58429;49.826;10.880;2023-03-23T03:03:50;7.9;;;1.9;;
4325;SDS011;58429;49.826;10.880;2023-03-23T03:04:52;7.9;;;1.9;;
4325;SDS011;58429;49.826;10.880;2023-03-23T03:05:52;6.8;;;1.8;;
4325;SDS011;58429;49.826;10.880;2023-03-23T03:06:53;6.8;;;1.8;;
4325;SDS011;58429;49.826;10.880;2023-03-23T03:07:53;6.8;;;1.8;;
4325;SDS011;58429;49.826;10.880;2023-03-23T03:08:50;7.1;;;1.8;;
4325;SDS011;58429;49.826;10.880;2023-03-23T03:09:50;7.1;;;1.8;;
4325;SDS011;58429;49.826;10.880;2023-03-23T03:10:51;7.1;;;1.8;;
4325;SDS011;58429;49.826;10.880;2023-03-23T03:11:50;5.9;;;1.7;;
4325;SDS011;58429;49.826;10.880;2023-03-23T03:12:51;5.9;;;1.7;;
4325;SDS011;58429;49.826;10.880;2023-03-23T03:13:51;5.9;;;1.7;;
4325;SDS011;58429;49.826;10.880;2023-03-23T03:14:51;6.7;;;2;;
4325;SDS011;58429;49.826;10.880;2023-03-23T03:15:51;6.7;;;2;;
4325;SDS011;58429;49.826;10.880;2023-03-23T03:16:52;6.7;;;2;;
4325;SDS011;58429;49.826;10.880;2023-03-23T03:17:52;5.9;;;1.8;;
4325;SDS011;58429;49.826;10.880;2023-03-23T03:18:51;5.9;;;1.8;;
4325;SDS011;58429;49.826;10.880;2023-03-23T03:19:51;5.9;;;1.8;;
4325;SDS011;58429;49.826;10.880;2023-03-23T03:20:51;6.8;;;1.9;;
4325;SDS011;58429;49.826;10.880;2023-03-23T03:21:50;6.8;;;1.9;;
4325;SDS011;58429;49.826;10.880;2023-03-23T03:22:50;6.8;;;1.9;;
4325;SDS011;58429;49.826;10.880;2023-03-23T03:23:50;6.3;;;1.8;;
4325;SDS011;58429;49.826;10.880;2023-03-23T03:24:50;6.3;;;1.8;;
4325;SDS011;58429;49.826;10.880;2023-03-23T03:25:50;6.3;;;1.8;;
4325;SDS011;58429;49.826;10.880;2023-03-23T03:26:51;5.2;;;1.7;;
4325;SDS011;58429;49.826;10.880;2023-03-23T03:27:50;5.2;;;1.7;;
4325;SDS011;58429;49.826;10.880;2023-03-23T03:28:50;5.2;;;1.7;;
4325;SDS011;58429;49.826;10.880;2023-03-23T03:29:51;7.7;;;2.1;;
4325;SDS011;58429;49.826;10.880;2023-03-23T03:30:52;7.7;;;2.1;;
4325;SDS011;58429;49.826;10.880;2023-03-23T03:31:50;7.7;;;2.1;;
4325;SDS011;58429;49.826;10.880;2023-03-23T03:32:50;5.7;;;1.7;;
4325;SDS011;58429;49.826;10.880;2023-03-23T03:33:50;5.7;;;1.7;;
4325;SDS011;58429;49.826;10.880;2023-03-23T03:34:50;5.7;;;1.7;;
4325;SDS011;58429;49.826;10.880;2023-03-23T03:35:50;6.9;;;2;;
4325;SDS011;58429;49.826;10.880;2023-03-23T03:36:51;6.9;;;2;;
4325;SDS011;58429;49.826;10.880;2023-03-23T03:37:50;6.9;;;2;;
4325;SDS011;58429;49.826;10.880;2023-03-23T03:38:50;6.8;;;1.9;;
4325;SDS011;58429;49.826;10.880;2023-03-23T03:39:50;6.8;;;1.9;;
4325;SDS011;58429;49.826;10.880;2023-03-23T03:40:50;6.8;;;1.9;;
4325;SDS011;58429;49.826;10.880;2023-03-23T03:41:50;7;;;1.9;;
4325;SDS011;58429;49.826;10.880;2023-03-23T03:42:50;7;;;1.9;;
4325;SDS011;58429;49.826;10.880;2023-03-23T03:43:50;7;;;1.9;;
4325;SDS011;58429;49.826;10.880;2023-03-23T03:44:50;6.9;;;2;;
4325;SDS011;58429;49.826;10.880;2023-03-23T03:45:50;6.9;;;2;;
4325;SDS011;58429;49.826;10.880;2023-03-23T03:46:50;6.9;;;2;;
4325;SDS011;58429;49.826;10.880;2023-03-23T03:47:50;6.8;;;1.9;;
4325;SDS011;58429;49.826;10.880;2023-03-23T03:48:50;6.8;;;1.9;;
4325;SDS011;58429;49.826;10.880;2023-03-23T03:49:50;6.8;;;1.9;;
4325;SDS011;58429;49.826;10.880;2023-03-23T03:50:50;7.3;;;2.3;;
4325;SDS011;58429;49.826;10.880;2023-03-23T03:51:50;7.3;;;2.3;;
4325;SDS011;58429;49.826;10.880;2023-03-23T03:52:50;7.3;;;2.3;;
4325;SDS011;58429;49.826;10.880;2023-03-23T03:53:50;7.4;;;2.9;;
4325;SDS011;58429;49.826;10.880;2023-03-23T03:54:50;7.4;;;2.9;;
4325;SDS011;58429;49.826;10.880;2023-03-23T03:55:50;7.4;;;2.9;;
4325;SDS011;58429;49.826;10.880;2023-03-23T03:56:50;6.4;;;2.7;;
4325;SDS011;58429;49.826;10.880;2023-03-23T03:57:50;6.4;;;2.7;;
4325;SDS011;58429;49.826;10.880;2023-03-23T03:58:50;6.4;;;2.7;;
4325;SDS011;58429;49.826;10.880;2023-03-23T03:59:50;6.4;;;2.7;;
4325;SDS011;58429;49.826;10.880;2023-03-23T04:00:50;6.5;;;2;;
4325;SDS011;58429;49.826;10.880;2023-03-23T04:01:50;6.5;;;2;;
4325;SDS011;58429;49.826;10.880;2023-03-23T04:02:50;6.5;;;2;;
4325;SDS011;58429;49.826;10.880;2023-03-23T04:03:50;7.3;;;1.9;;
4325;SDS011;58429;49.826;10.880;2023-03-23T04:04:50;7.3;;;1.9;;
4325;SDS011;58429;49.826;10.880;2023-03-23T04:05:50;7.3;;;1.9;;
4325;SDS011;58429;49.826;10.880;2023-03-23T04:06:50;7.2;;;2;;
4325;SDS011;58429;49.826;10.880;2023-03-23T04:07:50;7.2;;;2;;
4325;SDS011;58429;49.826;10.880;2023-03-23T04:08:50;7.2;;;2;;
4325;SDS011;58429;49.826;10.880;2023-03-23T04:09:50;6.3;;;1.8;;
4325;SDS011;58429;49.826;10.880;2023-03-23T04:10:50;6.3;;;1.8;;
4325;SDS011;58429;49.826;10.880;2023-03-23T04:11:50;6.3;;;1.8;;
4325;SDS011;58429;49.826;10.880;2023-03-23T04:12:50;6.1;;;2;;
4325;SDS011;58429;49.826;10.880;2023-03-23T04:13:50;6.1;;;2;;
4325;SDS011;58429;49.826;10.880;2023-03-23T04:14:50;6.1;;;2;;
4325;SDS011;58429;49.826;10.880;2023-03-23T04:15:50;6.5;;;1.8;;
4325;SDS011;58429;49.826;10.880;2023-03-23T04:16:50;6.5;;;1.8;;
4325;SDS011;58429;49.826;10.880;2023-03-23T04:17:50;6.5;;;1.8;;
4325;SDS011;58429;49.826;10.880;2023-03-23T04:18:50;5.7;;;1.7;;
4325;SDS011;58429;49.826;10.880;2023-03-23T04:19:50;5.7;;;1.7;;
4325;SDS011;58429;49.826;10.880;2023-03-23T04:20:50;5.7;;;1.7;;
4325;SDS011;58429;49.826;10.880;2023-03-23T04:21:50;6.9;;;1.9;;
4325;SDS011;58429;49.826;10.880;2023-03-23T04:22:50;6.9;;;1.9;;
4325;SDS011;58429;49.826;10.880;2023-03-23T04:23:50;6.9;;;1.9;;
4325;SDS011;58429;49.826;10.880;2023-03-23T04:24:50;7.7;;;2.5;;
4325;SDS011;58429;49.826;10.880;2023-03-23T04:25:50;7.7;;;2.5;;
4325;SDS011;58429;49.826;10.880;2023-03-23T04:26:50;7.7;;;2.5;;
4325;SDS011;58429;49.826;10.880;2023-03-23T04:27:51;6.2;;;2;;
4325;SDS011;58429;49.826;10.880;2023-03-23T04:28:50;6.2;;;2;;
4325;SDS011;58429;49.826;10.880;2023-03-23T04:29:50;6.2;;;2;;
4325;SDS011;58429;49.826;10.880;2023-03-23T04:30:51;6.3;;;2.2;;
4325;SDS011;58429;49.826;10.880;2023-03-23T04:31:50;6.3;;;2.2;;
4325;SDS011;58429;49.826;10.880;2023-03-23T04:32:50;6.3;;;2.2;;
4325;SDS011;58429;49.826;10.880;2023-03-23T04:33:50;6.8;;;2.2;;
4325;SDS011;58429;49.826;10.880;2023-03-23T04:34:50;6.8;;;2.2;;
4325;SDS011;58429;49.826;10.880;2023-03-23T04:35:50;6.8;;;2.2;;
4325;SDS011;58429;49.826;10.880;2023-03-23T04:36:50;6.2;;;2.1;;
4325;SDS011;58429;49.826;10.880;2023-03-23T04:37:50;6.2;;;2.1;;
4325;SDS011;58429;49.826;10.880;2023-03-23T04:38:50;6.2;;;2.1;;
4325;SDS011;58429;49.826;10.880;2023-03-23T04:39:50;6.4;;;1.9;;
4325;SDS011;58429;49.826;10.880;2023-03-23T04:40:50;6.4;;;1.9;;
4325;SDS011;58429;49.826;10.880;2023-03-23T04:41:50;6.4;;;1.9;;
4325;SDS011;58429;49.826;10.880;2023-03-23T04:42:50;6.9;;;1.9;;
4325;SDS011;58429;49.826;10.880;2023-03-23T04:43:50;6.9;;;1.9;;
4325;SDS011;58429;49.826;10.880;2023-03-23T04:44:50;6.9;;;1.9;;
4325;SDS011;58429;49.826;10.880;2023-03-23T04:45:52;6.1;;;1.8;;
4325;SDS011;58429;49.826;10.880;2023-03-23T04:46:50;6.1;;;1.8;;
4325;SDS011;58429;49.826;10.880;2023-03-23T04:47:50;6.1;;;1.8;;
4325;SDS011;58429;49.826;10.880;2023-03-23T04:48:50;6.2;;;1.7;;
4325;SDS011;58429;49.826;10.880;2023-03-23T04:49:50;6.2;;;1.7;;
4325;SDS011;58429;49.826;10.880;2023-03-23T04:50:50;6.2;;;1.7;;
4325;SDS011;58429;49.826;10.880;2023-03-23T04:51:50;7.3;;;1.8;;
4325;SDS011;58429;49.826;10.880;2023-03-23T04:52:50;7.3;;;1.8;;
4325;SDS011;58429;49.826;10.880;2023-03-23T04:53:50;7.3;;;1.8;;
4325;SDS011;58429;49.826;10.880;2023-03-23T04:54:50;6.1;;;1.7;;
4325;SDS011;58429;49.826;10.880;2023-03-23T04:55:50;6.1;;;1.7;;
4325;SDS011;58429;49.826;10.880;2023-03-23T04:56:50;6.1;;;1.7;;
4325;SDS011;58429;49.826;10.880;2023-03-23T04:57:50;7.1;;;1.9;;
4325;SDS011;58429;49.826;10.880;2023-03-23T04:58:50;7.1;;;1.9;;
4325;SDS011;58429;49.826;10.880;2023-03-23T04:59:50;7.1;;;1.9;;
4325;SDS011;58429;49.826;10.880;2023-03-23T05:00:50;6.7;;;1.7;;
4325;SDS011;58429;49.826;10.880;2023-03-23T05:01:50;6.7;;;1.7;;
4325;SDS011;58429;49.826;10.880;2023-03-23T05:02:50;6.7;;;1.7;;
4325;SDS011;58429;49.826;10.880;2023-03-23T05:03:50;6;;;1.9;;
4325;SDS011;58429;49.826;10.880;2023-03-23T05:04:50;6;;;1.9;;
4325;SDS011;58429;49.826;10.880;2023-03-23T05:05:50;6;;;1.9;;
4325;SDS011;58429;49.826;10.880;2023-03-23T05:06:50;5.6;;;1.7;;
4325;SDS011;58429;49.826;10.880;2023-03-23T05:07:50;5.6;;;1.7;;
4325;SDS011;58429;49.826;10.880;2023-03-23T05:08:50;5.6;;;1.7;;
4325;SDS011;58429;49.826;10.880;2023-03-23T05:09:50;7.8;;;1.6;;
4325;SDS011;58429;49.826;10.880;2023-03-23T05:10:50;7.8;;;1.6;;
4325;SDS011;58429;49.826;10.880;2023-03-23T05:11:50;7.8;;;1.6;;
4325;SDS011;58429;49.826;10.880;2023-03-23T05:12:50;5.5;;;1.5;;
4325;SDS011;58429;49.826;10.880;2023-03-23T05:13:50;5.5;;;1.5;;
4325;SDS011;58429;49.826;10.880;2023-03-23T05:14:50;5.5;;;1.5;;
4325;SDS011;58429;49.826;10.880;2023-03-23T05:15:50;5.4;;;1.9;;
4325;SDS011;58429;49.826;10.880;2023-03-23T05:16:50;5.4;;;1.9;;
4325;SDS011;58429;49.826;10.880;2023-03-23T05:17:50;5.4;;;1.9;;
4325;SDS011;58429;49.826;10.880;2023-03-23T05:18:50;7.1;;;1.8;;
4325;SDS011;58429;49.826;10.880;2023-03-23T05:19:50;7.1;;;1.8;;
4325;SDS011;58429;49.826;10.880;2023-03-23T05:20:50;7.1;;;1.8;;
4325;SDS011;58429;49.826;10.880;2023-03-23T05:21:50;5.7;;;1.5;;
4325;SDS011;58429;49.826;10.880;2023-03-23T05:22:50;5.7;;;1.5;;
4325;SDS011;58429;49.826;10.880;2023-03-23T05:23:50;5.7;;;1.5;;
4325;SDS011;58429;49.826;10.880;2023-03-23T05:24:50;5.4;;;1.5;;
4325;SDS011;58429;49.826;10.880;2023-03-23T05:25:53;5.4;;;1.5;;
4325;SDS011;58429;49.826;10.880;2023-03-23T05:26:50;5.4;;;1.5;;
4325;SDS011;58429;49.826;10.880;2023-03-23T05:27:50;5.1;;;1.7;;
4325;SDS011;58429;49.826;10.880;2023-03-23T05:28:50;5.1;;;1.7;;
4325;SDS011;58429;49.826;10.880;2023-03-23T05:29:50;5.1;;;1.7;;
4325;SDS011;58429;49.826;10.880;2023-03-23T05:30:50;5.7;;;1.8;;
4325;SDS011;58429;49.826;10.880;2023-03-23T05:31:50;5.7;;;1.8;;
4325;SDS011;58429;49.826;10.880;2023-03-23T05:32:50;5.7;;;1.8;;
4325;SDS011;58429;49.826;10.880;2023-03-23T05:33:50;5.6;;;1.6;;
4325;SDS011;58429;49.826;10.880;2023-03-23T05:34:50;5.6;;;1.6;;
4325;SDS011;58429;49.826;10.880;2023-03-23T05:35:50;5.6;;;1.6;;
4325;SDS011;58429;49.826;10.880;2023-03-23T05:36:50;5.3;;;1.6;;
4325;SDS011;58429;49.826;10.880;2023-03-23T05:37:50;5.3;;;1.6;;
4325;SDS011;58429;49.826;10.880;2023-03-23T05:38:50;5.3;;;1.6;;
4325;SDS011;58429;49.826;10.880;2023-03-23T05:39:50;5.2;;;1.4;;
4325;SDS011;58429;49.826;10.880;2023-03-23T05:40:50;5.2;;;1.4;;
4325;SDS011;58429;49.826;10.880;2023-03-23T05:41:50;5.2;;;1.4;;
4325;SDS011;58429;49.826;10.880;2023-03-23T05:42:50;6.8;;;1.6;;
4325;SDS011;58429;49.826;10.880;2023-03-23T05:43:50;6.8;;;1.6;;
4325;SDS011;58429;49.826;10.880;2023-03-23T05:44:50;6.8;;;1.6;;
4325;SDS011;58429;49.826;10.880;2023-03-23T05:45:50;6.4;;;1.8;;
4325;SDS011;58429;49.826;10.880;2023-03-23T05:46:50;6.4;;;1.8;;
4325;SDS011;58429;49.826;10.880;2023-03-23T05:47:50;6.4;;;1.8;;
4325;SDS011;58429;49.826;10.880;2023-03-23T05:48:50;7.4;;;2.2;;
4325;SDS011;58429;49.826;10.880;2023-03-23T05:49:50;7.4;;;2.2;;
4325;SDS011;58429;49.826;10.880;2023-03-23T05:50:50;7.4;;;2.2;;
4325;SDS011;58429;49.826;10.880;2023-03-23T05:51:50;6;;;2.1;;
4325;SDS011;58429;49.826;10.880;2023-03-23T05:52:50;6;;;2.1;;
4325;SDS011;58429;49.826;10.880;2023-03-23T05:53:50;6;;;2.1;;
4325;SDS011;58429;49.826;10.880;2023-03-23T05:54:50;6;;;2.1;;
4325;SDS011;58429;49.826;10.880;2023-03-23T05:55:50;6.3;;;1.9;;
4325;SDS011;58429;49.826;10.880;2023-03-23T05:56:50;6.3;;;1.9;;
4325;SDS011;58429;49.826;10.880;2023-03-23T05:57:50;6.3;;;1.9;;
4325;SDS011;58429;49.826;10.880;2023-03-23T05:58:50;5.7;;;1.8;;
4325;SDS011;58429;49.826;10.880;2023-03-23T05:59:50;5.7;;;1.8;;
4325;SDS011;58429;49.826;10.880;2023-03-23T06:00:50;5.7;;;1.8;;
4325;SDS011;58429;49.826;10.880;2023-03-23T06:01:51;8.4;;;2.8;;
4325;SDS011;58429;49.826;10.880;2023-03-23T06:02:53;8.4;;;2.8;;
4325;SDS011;58429;49.826;10.880;2023-03-23T06:03:50;8.4;;;2.8;;
4325;SDS011;58429;49.826;10.880;2023-03-23T06:04:50;5.9;;;2;;
4325;SDS011;58429;49.826;10.880;2023-03-23T06:05:50;5.9;;;2;;
4325;SDS011;58429;49.826;10.880;2023-03-23T06:06:50;5.9;;;2;;
4325;SDS011;58429;49.826;10.880;2023-03-23T06:07:50;6.7;;;1.8;;
4325;SDS011;58429;49.826;10.880;2023-03-23T06:08:50;6.7;;;1.8;;
4325;SDS011;58429;49.826;10.880;2023-03-23T06:09:50;6.7;;;1.8;;
4325;SDS011;58429;49.826;10.880;2023-03-23T06:10:50;6.2;;;1.7;;
4325;SDS011;58429;49.826;10.880;2023-03-23T06:11:50;6.2;;;1.7;;
4325;SDS011;58429;49.826;10.880;2023-03-23T06:12:50;6.2;;;1.7;;
4325;SDS011;58429;49.826;10.880;2023-03-23T06:13:50;5.6;;;1.8;;
4325;SDS011;58429;49.826;10.880;2023-03-23T06:14:50;5.6;;;1.8;;
4325;SDS011;58429;49.826;10.880;2023-03-23T06:15:54;5.6;;;1.8;;